Time;durP1;ratioP1;P1;durP2;ratioP2;P2;SDS_P1;SDS_P2;PMS_P1;PMS_P2;Temp;Humidity;BMP_temperature;BMP_pressure;BME280_temperature;BME280_humidity;BME280_pressure;Samples;Min_cycle;Max_cycle;Signal;HPM_P1;HPM_P2
2023/08/16 00:01:42;;;;;;;3.47;2.70;;;17.50;99.90;;;;;;5055036;28;20905;-63
2023/08/16 00:04:11;;;;;;;4.83;3.17;;;17.40;99.90;;;;;;5059607;28;20582;-64
2023/08/16 00:06:42;;;;;;;2.47;2.23;;;17.40;99.90;;;;;;5054415;28;20482;-63
2023/08/16 00:09:11;;;;;;;3.33;2.60;;;17.40;99.90;;;;;;5054450;28;20474;-63
2023/08/16 00:11:40;;;;;;;3.03;2.83;;;17.40;99.90;;;;;;5053357;28;20596;-63
2023/08/16 00:14:08;;;;;;;3.10;2.90;;;17.30;99.90;;;;;;5054483;28;21119;-65
2023/08/16 00:16:36;;;;;;;3.30;2.73;;;17.30;99.90;;;;;;5045890;28;23866;-64
2023/08/16 00:19:04;;;;;;;3.10;2.67;;;17.30;99.90;;;;;;5053585;28;20471;-64
2023/08/16 00:21:32;;;;;;;2.93;2.53;;;17.30;99.90;;;;;;5047655;28;21496;-63
2023/08/16 00:24:00;;;;;;;3.07;2.87;;;17.20;99.90;;;;;;5049836;28;20588;-63
2023/08/16 00:26:29;;;;;;;5.40;2.93;;;17.20;99.90;;;;;;5054424;28;20513;-62
2023/08/16 00:28:57;;;;;;;3.47;3.20;;;17.20;99.90;;;;;;5048606;28;20558;-63
2023/08/16 00:31:26;;;;;;;3.17;2.97;;;17.20;99.90;;;;;;5051084;28;20465;-63
2023/08/16 00:33:54;;;;;;;3.50;3.20;;;17.20;99.90;;;;;;5052574;28;20525;-63
2023/08/16 00:36:22;;;;;;;2.60;2.40;;;17.10;99.90;;;;;;5054645;28;20791;-63
2023/08/16 00:38:50;;;;;;;3.73;2.87;;;17.10;99.90;;;;;;5052658;28;20787;-62
2023/08/16 00:41:19;;;;;;;3.57;2.83;;;17.10;99.90;;;;;;5053550;28;20558;-63
2023/08/16 00:43:48;;;;;;;4.17;3.10;;;17.10;99.90;;;;;;5052092;28;20987;-63
2023/08/16 00:46:19;;;;;;;3.10;2.90;;;17.00;99.90;;;;;;5050132;28;21043;-63
2023/08/16 00:48:47;;;;;;;3.20;3.00;;;17.00;99.90;;;;;;5051462;28;20469;-63
2023/08/16 00:51:15;;;;;;;3.27;2.97;;;17.00;99.90;;;;;;5053606;28;20985;-62
2023/08/16 00:53:45;;;;;;;3.50;3.20;;;16.90;99.90;;;;;;5053747;28;20593;-63
2023/08/16 00:56:14;;;;;;;4.33;3.23;;;16.90;99.90;;;;;;5056788;28;20525;-63
2023/08/16 00:58:43;;;;;;;3.73;3.20;;;16.90;99.90;;;;;;5057905;28;20478;-64
2023/08/16 01:01:12;;;;;;;4.10;3.07;;;16.80;99.90;;;;;;5053654;28;20477;-62
2023/08/16 01:03:41;;;;;;;3.57;3.20;;;16.80;99.90;;;;;;5052736;28;20531;-64
2023/08/16 01:06:09;;;;;;;3.50;3.20;;;16.80;99.90;;;;;;5055595;28;20486;-64
2023/08/16 01:08:37;;;;;;;4.70;3.90;;;16.70;99.90;;;;;;5053123;28;20585;-63
2023/08/16 01:11:17;;;;;;;3.90;3.60;;;16.70;99.90;;;;;;5057905;28;20481;-64
2023/08/16 01:13:55;;;;;;;3.63;2.97;;;16.70;99.90;;;;;;5056421;28;20486;-64
2023/08/16 01:16:27;;;;;;;3.40;3.10;;;16.70;99.90;;;;;;5056232;28;20568;-63
2023/08/16 01:18:56;;;;;;;4.10;3.20;;;16.70;99.90;;;;;;5057278;28;20466;-62
2023/08/16 01:21:27;;;;;;;3.43;3.13;;;16.60;99.90;;;;;;5052732;28;21050;-64
2023/08/16 01:24:06;;;;;;;3.97;3.23;;;16.60;99.90;;;;;;5049373;28;20490;-62
2023/08/16 01:26:36;;;;;;;3.87;3.20;;;16.60;99.90;;;;;;5045952;28;21201;-62
2023/08/16 01:29:06;;;;;;;3.30;3.00;;;16.50;99.90;;;;;;5046951;28;20463;-62
2023/08/16 01:31:35;;;;;;;3.47;3.17;;;16.50;99.90;;;;;;5047056;28;20894;-62
2023/08/16 01:34:03;;;;;;;3.57;2.90;;;16.50;99.90;;;;;;5051196;28;20493;-62
2023/08/16 01:36:31;;;;;;;4.03;3.10;;;16.40;99.90;;;;;;5052468;28;20573;-63
2023/08/16 01:38:59;;;;;;;3.60;3.30;;;16.40;99.90;;;;;;5058880;28;20598;-64
2023/08/16 01:41:32;;;;;;;5.30;3.37;;;16.40;99.90;;;;;;5050602;28;21009;-64
2023/08/16 01:44:02;;;;;;;3.40;3.10;;;16.40;99.90;;;;;;5050780;28;20605;-64
2023/08/16 01:46:32;;;;;;;3.40;3.13;;;16.40;99.90;;;;;;5051176;28;20585;-64
2023/08/16 01:49:02;;;;;;;3.50;3.20;;;16.30;99.90;;;;;;5051064;28;20910;-61
2023/08/16 01:51:30;;;;;;;3.60;3.30;;;16.30;99.90;;;;;;5053038;28;20553;-64
2023/08/16 01:53:58;;;;;;;3.40;3.10;;;16.30;99.90;;;;;;5053382;28;20584;-63
2023/08/16 01:56:27;;;;;;;3.40;3.20;;;16.30;99.90;;;;;;5054513;28;20479;-64
2023/08/16 01:58:55;;;;;;;3.27;2.97;;;16.20;99.90;;;;;;5057236;28;20979;-63
2023/08/16 02:01:24;;;;;;;3.80;3.50;;;16.20;99.90;;;;;;5051669;28;20994;-63
2023/08/16 02:03:53;;;;;;;3.90;3.60;;;16.20;99.90;;;;;;5053634;28;21021;-64
2023/08/16 02:06:22;;;;;;;3.27;2.97;;;16.20;99.90;;;;;;5055967;28;20488;-62
2023/08/16 02:08:51;;;;;;;5.07;3.40;;;16.20;99.90;;;;;;5055125;28;20561;-64
2023/08/16 02:11:20;;;;;;;5.67;3.40;;;16.10;99.90;;;;;;5058270;28;20470;-65
2023/08/16 02:13:48;;;;;;;3.67;3.37;;;16.10;99.90;;;;;;5055604;28;20560;-62
2023/08/16 02:16:16;;;;;;;4.30;3.33;;;16.10;99.90;;;;;;5041985;28;20572;-63
2023/08/16 02:18:46;;;;;;;4.50;3.40;;;16.10;99.90;;;;;;5045390;28;21377;-63
2023/08/16 02:21:14;;;;;;;4.27;3.20;;;16.10;99.90;;;;;;5046687;28;21292;-63
2023/08/16 02:23:42;;;;;;;3.70;3.17;;;16.00;99.90;;;;;;5053217;28;20529;-63
2023/08/16 02:26:10;;;;;;;5.30;3.20;;;16.00;99.90;;;;;;5047954;28;20496;-64
2023/08/16 02:28:38;;;;;;;4.33;3.10;;;16.00;99.90;;;;;;5050252;28;20476;-64
2023/08/16 02:31:07;;;;;;;4.30;3.30;;;16.00;99.90;;;;;;5055235;28;21038;-62
2023/08/16 02:33:35;;;;;;;3.20;2.90;;;15.90;99.90;;;;;;5051635;28;20489;-64
2023/08/16 02:36:05;;;;;;;3.53;3.23;;;15.90;99.90;;;;;;5050920;28;20481;-62
2023/08/16 02:38:33;;;;;;;4.80;3.23;;;15.90;99.90;;;;;;5051960;28;20522;-64
2023/08/16 02:41:01;;;;;;;5.10;3.30;;;15.90;99.90;;;;;;5053656;28;20899;-62
2023/08/16 02:43:29;;;;;;;4.03;3.07;;;15.90;99.90;;;;;;5051452;28;20875;-64
2023/08/16 02:45:57;;;;;;;5.63;3.60;;;15.80;99.90;;;;;;5047772;28;21101;-61
2023/08/16 02:48:25;;;;;;;5.03;4.07;;;15.80;99.90;;;;;;5050651;28;21064;-64
2023/08/16 02:50:53;;;;;;;4.40;4.00;;;15.80;99.90;;;;;;5054513;28;21116;-64
2023/08/16 02:53:23;;;;;;;3.87;3.47;;;15.80;99.90;;;;;;5053057;28;20548;-62
2023/08/16 02:55:51;;;;;;;3.93;3.63;;;15.80;99.90;;;;;;5054306;28;20573;-63
2023/08/16 02:58:19;;;;;;;8.00;4.27;;;15.70;99.90;;;;;;5056600;28;21022;-64
2023/08/16 03:00:50;;;;;;;4.93;4.27;;;15.70;99.90;;;;;;5054462;28;20463;-64
2023/08/16 03:03:19;;;;;;;5.00;4.50;;;15.70;99.90;;;;;;5048808;28;20485;-62
2023/08/16 03:05:47;;;;;;;5.57;4.07;;;15.70;99.90;;;;;;5049858;28;20492;-63
2023/08/16 03:08:15;;;;;;;5.00;4.00;;;15.70;99.90;;;;;;5056119;28;20473;-64
2023/08/16 03:10:44;;;;;;;4.10;3.70;;;15.70;99.90;;;;;;5051737;28;20469;-63
2023/08/16 03:13:12;;;;;;;6.30;4.10;;;15.70;99.90;;;;;;5050309;28;20490;-62
2023/08/16 03:15:40;;;;;;;4.87;4.00;;;15.60;99.90;;;;;;5051017;28;20482;-63
2023/08/16 03:18:08;;;;;;;5.00;4.30;;;15.60;99.90;;;;;;5055130;28;20469;-63
2023/08/16 03:20:36;;;;;;;6.00;4.17;;;15.60;99.90;;;;;;5051714;28;20477;-63
2023/08/16 03:23:04;;;;;;;4.40;4.00;;;15.50;99.90;;;;;;5058348;28;20859;-63
2023/08/16 03:25:32;;;;;;;4.50;4.10;;;15.50;99.90;;;;;;5053580;28;20486;-62
2023/08/16 03:28:01;;;;;;;5.20;4.70;;;15.50;99.90;;;;;;5051931;28;20596;-65
2023/08/16 03:30:29;;;;;;;4.97;4.47;;;15.50;99.90;;;;;;5053322;28;20465;-63
2023/08/16 03:32:57;;;;;;;6.60;4.47;;;15.50;99.90;;;;;;5053704;28;20525;-64
2023/08/16 03:35:25;;;;;;;4.83;4.33;;;15.50;99.90;;;;;;5056717;28;20494;-62
2023/08/16 03:37:53;;;;;;;5.30;4.80;;;15.40;99.90;;;;;;5055625;28;20978;-64
2023/08/16 03:40:21;;;;;;;5.53;4.60;;;15.40;99.90;;;;;;5058068;28;20500;-63
2023/08/16 03:42:49;;;;;;;6.53;5.37;;;15.40;99.90;;;;;;5055791;28;20536;-64
2023/08/16 03:45:23;;;;;;;5.20;4.80;;;15.40;99.90;;;;;;5047274;28;20948;-62
2023/08/16 03:47:52;;;;;;;4.93;4.20;;;15.40;99.90;;;;;;5057190;28;20577;-64
2023/08/16 03:50:20;;;;;;;5.03;4.53;;;15.40;99.90;;;;;;5055218;28;22492;-63
2023/08/16 03:52:48;;;;;;;6.80;4.63;;;15.30;99.90;;;;;;5051442;28;21130;-62
2023/08/16 03:55:16;;;;;;;6.60;4.53;;;15.30;99.90;;;;;;5054588;28;20481;-63
2023/08/16 03:57:44;;;;;;;8.73;5.20;;;15.30;99.90;;;;;;5055187;28;20548;-63
2023/08/16 04:00:15;;;;;;;5.77;5.23;;;15.30;99.90;;;;;;5052464;28;20554;-63
2023/08/16 04:02:44;;;;;;;5.10;4.63;;;15.30;99.90;;;;;;5050765;28;20526;-64
2023/08/16 04:05:14;;;;;;;5.83;4.60;;;15.20;99.90;;;;;;5045036;28;20484;-64
2023/08/16 04:07:42;;;;;;;5.40;4.90;;;15.20;99.90;;;;;;5046309;28;20509;-64
2023/08/16 04:10:11;;;;;;;5.37;4.87;;;15.20;99.90;;;;;;5052490;28;20551;-64
2023/08/16 04:12:39;;;;;;;6.70;5.73;;;15.20;99.90;;;;;;5055147;28;20502;-62
2023/08/16 04:15:09;;;;;;;5.20;4.70;;;15.20;99.90;;;;;;5052024;28;21101;-62
2023/08/16 04:17:37;;;;;;;6.30;5.50;;;15.20;99.90;;;;;;5047170;28;20485;-63
2023/08/16 04:20:08;;;;;;;5.80;5.30;;;15.20;99.90;;;;;;5048534;28;20474;-62
2023/08/16 04:22:36;;;;;;;6.80;5.33;;;15.10;99.90;;;;;;5048872;28;20533;-64
2023/08/16 04:25:04;;;;;;;6.10;5.60;;;15.10;99.90;;;;;;5045788;28;20567;-62
2023/08/16 04:27:32;;;;;;;6.27;5.70;;;15.10;99.90;;;;;;5048770;28;20580;-64
2023/08/16 04:30:00;;;;;;;6.03;5.50;;;15.10;99.90;;;;;;5046475;28;21016;-66
2023/08/16 04:32:29;;;;;;;6.00;5.20;;;15.20;99.90;;;;;;5041974;28;20486;-64
2023/08/16 04:34:57;;;;;;;5.80;5.30;;;15.10;99.90;;;;;;5052632;28;20489;-62
2023/08/16 04:37:26;;;;;;;7.33;6.73;;;15.10;99.90;;;;;;5046233;28;20592;-64
2023/08/16 04:39:54;;;;;;;6.83;6.20;;;15.10;99.90;;;;;;5052782;28;20476;-63
2023/08/16 04:42:22;;;;;;;8.90;7.07;;;15.10;99.90;;;;;;5052286;28;20579;-63
2023/08/16 04:44:50;;;;;;;7.37;6.67;;;15.10;99.90;;;;;;5051899;28;20560;-63
2023/08/16 04:47:18;;;;;;;8.10;7.30;;;15.10;99.90;;;;;;5046765;28;20980;-62
2023/08/16 04:49:46;;;;;;;8.73;7.30;;;15.10;99.90;;;;;;5050898;28;20480;-64
2023/08/16 04:52:14;;;;;;;7.50;6.93;;;15.10;99.90;;;;;;5051904;28;20612;-62
2023/08/16 04:54:43;;;;;;;7.83;7.03;;;15.20;99.90;;;;;;5050817;28;20488;-64
2023/08/16 04:57:11;;;;;;;8.20;7.40;;;15.20;99.90;;;;;;5057540;28;20553;-66
2023/08/16 04:59:39;;;;;;;11.10;7.73;;;15.20;99.90;;;;;;5054826;28;20619;-65
2023/08/16 05:02:08;;;;;;;7.47;6.77;;;15.20;99.90;;;;;;5053567;28;20478;-65
2023/08/16 05:04:36;;;;;;;7.80;7.00;;;15.30;99.90;;;;;;5049867;28;25529;-65
2023/08/16 05:07:04;;;;;;;8.07;7.23;;;15.30;99.90;;;;;;5055222;28;20592;-65
2023/08/16 05:09:32;;;;;;;7.80;7.00;;;15.40;99.90;;;;;;5053443;28;20929;-65
2023/08/16 05:12:01;;;;;;;8.77;7.87;;;15.40;99.90;;;;;;5053618;28;20477;-65
2023/08/16 05:14:29;;;;;;;10.30;7.90;;;15.40;99.90;;;;;;5049071;28;20593;-64
2023/08/16 05:16:57;;;;;;;9.20;8.20;;;15.50;99.90;;;;;;5054910;28;20810;-65
2023/08/16 05:19:25;;;;;;;11.50;8.53;;;15.50;99.90;;;;;;5053911;28;20468;-71
2023/08/16 05:21:53;;;;;;;10.57;8.57;;;15.60;99.90;;;;;;5054092;28;20473;-71
2023/08/16 05:24:21;;;;;;;10.33;8.27;;;15.60;99.90;;;;;;5056616;28;21003;-74
2023/08/16 05:26:49;;;;;;;8.40;7.60;;;15.60;99.90;;;;;;5053297;28;20524;-77
2023/08/16 05:29:18;;;;;;;8.73;7.93;;;15.70;99.90;;;;;;5050837;28;20552;-75
2023/08/16 05:31:46;;;;;;;12.17;8.80;;;15.70;99.90;;;;;;5047556;28;20473;-66
2023/08/16 05:34:16;;;;;;;9.37;8.40;;;15.80;99.90;;;;;;5041379;28;20509;-67
2023/08/16 05:36:48;;;;;;;9.23;8.47;;;15.80;99.90;;;;;;5042005;28;20514;-65
2023/08/16 05:39:17;;;;;;;9.40;8.20;;;15.80;99.90;;;;;;5048529;28;20554;-65
2023/08/16 05:41:45;;;;;;;9.87;8.90;;;15.90;99.90;;;;;;5041352;28;20482;-65
2023/08/16 05:44:13;;;;;;;14.00;10.03;;;15.90;99.90;;;;;;5041986;28;20663;-65
2023/08/16 05:46:42;;;;;;;12.00;10.07;;;16.00;99.90;;;;;;5040972;28;20954;-63
2023/08/16 05:49:10;;;;;;;11.00;9.90;;;16.00;99.90;;;;;;5046561;28;20470;-65
2023/08/16 05:51:38;;;;;;;10.97;8.73;;;16.10;99.90;;;;;;5042923;28;20926;-65
2023/08/16 05:54:06;;;;;;;10.63;8.43;;;16.10;99.90;;;;;;5046486;28;21261;-65
2023/08/16 05:56:34;;;;;;;9.33;8.33;;;16.20;99.90;;;;;;5048729;28;20510;-65
2023/08/16 05:59:02;;;;;;;10.73;9.63;;;16.30;99.90;;;;;;5054592;28;20989;-65
2023/08/16 06:01:30;;;;;;;10.57;9.10;;;16.30;99.90;;;;;;5045014;28;20852;-63
2023/08/16 06:04:00;;;;;;;9.63;8.63;;;16.40;99.90;;;;;;5039617;28;20497;-64
2023/08/16 06:06:28;;;;;;;11.13;9.60;;;16.40;99.90;;;;;;5051404;28;21104;-66
2023/08/16 06:08:56;;;;;;;9.63;8.50;;;16.50;99.90;;;;;;5047906;28;20506;-66
2023/08/16 06:11:24;;;;;;;10.00;9.07;;;16.60;99.90;;;;;;5050705;28;20497;-66
2023/08/16 06:13:52;;;;;;;10.60;9.53;;;16.70;99.90;;;;;;5051751;28;20489;-66
2023/08/16 06:16:20;;;;;;;12.00;9.77;;;16.70;99.90;;;;;;5054687;28;20589;-66
2023/08/16 06:18:49;;;;;;;13.90;9.93;;;16.80;99.90;;;;;;5056430;28;21042;-65
2023/08/16 06:21:18;;;;;;;10.80;8.60;;;16.90;99.90;;;;;;5049356;28;20561;-66
2023/08/16 06:23:47;;;;;;;11.30;8.43;;;17.00;99.90;;;;;;5047536;28;20636;-66
2023/08/16 06:26:15;;;;;;;10.83;7.80;;;17.00;99.90;;;;;;5054417;28;20581;-66
2023/08/16 06:28:46;;;;;;;8.83;7.60;;;17.10;99.90;;;;;;5054192;28;20489;-66
2023/08/16 06:31:14;;;;;;;9.20;6.33;;;17.20;99.90;;;;;;5047953;28;20474;-66
2023/08/16 06:33:44;;;;;;;7.63;6.77;;;17.20;99.90;;;;;;5043922;28;20486;-66
2023/08/16 06:36:13;;;;;;;7.20;6.50;;;17.20;99.90;;;;;;5048699;28;20478;-66
2023/08/16 06:38:43;;;;;;;6.83;5.93;;;17.30;99.90;;;;;;5054204;28;20525;-66
2023/08/16 06:41:12;;;;;;;7.70;5.37;;;17.40;99.90;;;;;;5055606;28;20496;-66
2023/08/16 06:43:40;;;;;;;6.57;4.73;;;17.40;99.90;;;;;;5048538;28;20501;-65
2023/08/16 06:46:08;;;;;;;4.77;4.37;;;17.50;99.90;;;;;;5049581;28;20508;-65
2023/08/16 06:48:37;;;;;;;4.57;4.20;;;17.60;99.90;;;;;;5046006;28;20482;-66
2023/08/16 06:51:05;;;;;;;6.77;4.10;;;17.70;99.90;;;;;;5052373;28;20481;-66
2023/08/16 06:53:33;;;;;;;6.33;4.20;;;17.70;99.90;;;;;;5042932;28;21033;-66
2023/08/16 06:56:03;;;;;;;8.50;4.47;;;17.90;99.90;;;;;;5050709;28;20491;-65
2023/08/16 06:58:31;;;;;;;4.47;4.03;;;18.00;99.90;;;;;;5046858;28;20553;-65
2023/08/16 07:00:59;;;;;;;5.53;3.57;;;18.00;99.90;;;;;;5053970;28;20466;-65
2023/08/16 07:03:27;;;;;;;3.97;3.67;;;18.10;99.90;;;;;;5048396;28;20985;-64
2023/08/16 07:05:55;;;;;;;3.60;2.93;;;18.10;99.90;;;;;;5049854;28;20482;-61
2023/08/16 07:08:23;;;;;;;5.47;2.60;;;18.20;99.90;;;;;;5049111;28;20500;-64
2023/08/16 07:10:51;;;;;;;3.37;3.17;;;18.20;99.90;;;;;;5048889;28;21049;-64
2023/08/16 07:13:20;;;;;;;4.53;3.00;;;18.20;99.90;;;;;;5053220;28;20917;-64
2023/08/16 07:15:48;;;;;;;3.07;2.87;;;18.20;99.90;;;;;;5048277;28;20562;-64
2023/08/16 07:18:16;;;;;;;4.00;3.17;;;18.20;99.90;;;;;;5046051;28;20464;-64
2023/08/16 07:20:45;;;;;;;3.57;3.17;;;18.20;99.90;;;;;;5054433;28;20473;-64
2023/08/16 07:23:13;;;;;;;7.27;3.50;;;18.20;99.90;;;;;;5054607;28;20566;-64
2023/08/16 07:25:41;;;;;;;3.10;2.60;;;18.20;99.90;;;;;;5053453;28;20581;-64
2023/08/16 07:28:09;;;;;;;4.90;3.20;;;18.30;99.90;;;;;;5052479;28;20486;-64
2023/08/16 07:30:39;;;;;;;4.30;3.20;;;18.40;99.90;;;;;;5050865;28;20500;-63
2023/08/16 07:33:07;;;;;;;6.87;3.47;;;18.40;99.90;;;;;;5043141;28;20795;-63
2023/08/16 07:35:35;;;;;;;5.33;3.30;;;18.50;99.90;;;;;;5037873;28;21165;-63
2023/08/16 07:38:04;;;;;;;4.23;3.43;;;18.50;99.90;;;;;;5043959;28;20959;-63
2023/08/16 07:40:32;;;;;;;5.20;3.20;;;18.60;99.90;;;;;;5047156;28;20660;-63
2023/08/16 07:43:00;;;;;;;6.30;3.07;;;18.70;99.90;;;;;;5040566;28;20507;-63
2023/08/16 07:45:28;;;;;;;3.90;3.30;;;18.70;99.90;;;;;;5039904;28;21085;-64
2023/08/16 07:47:58;;;;;;;7.63;3.50;;;18.70;99.90;;;;;;5051867;28;20866;-63
2023/08/16 07:50:26;;;;;;;6.80;3.67;;;18.80;99.90;;;;;;5043069;28;20474;-62
2023/08/16 07:52:54;;;;;;;2.57;2.37;;;18.80;99.90;;;;;;5047127;28;20909;-63
2023/08/16 07:55:23;;;;;;;5.50;3.00;;;18.90;99.90;;;;;;5046625;28;20909;-63
2023/08/16 07:57:51;;;;;;;5.10;3.13;;;18.90;99.90;;;;;;5049763;28;20560;-63
2023/08/16 08:00:19;;;;;;;3.37;2.57;;;19.00;99.90;;;;;;5048649;28;20842;-62
2023/08/16 08:02:48;;;;;;;4.30;2.87;;;19.00;99.90;;;;;;5047090;28;20525;-63
2023/08/16 08:05:29;;;;;;;6.90;2.93;;;19.00;99.90;;;;;;5050173;28;20560;-63
2023/08/16 08:07:57;;;;;;;3.90;2.90;;;19.00;99.90;;;;;;5048821;28;21288;-63
2023/08/16 08:10:25;;;;;;;3.70;2.70;;;19.10;99.90;;;;;;5048221;28;21260;-63
2023/08/16 08:12:53;;;;;;;5.40;3.20;;;19.20;99.90;;;;;;5049128;28;21013;-63
2023/08/16 08:15:21;;;;;;;3.63;3.20;;;19.30;99.90;;;;;;5047295;28;20939;-63
2023/08/16 08:17:49;;;;;;;2.90;2.57;;;19.40;99.90;;;;;;5049799;28;20509;-63
2023/08/16 08:20:17;;;;;;;5.50;3.20;;;19.50;99.90;;;;;;5048618;28;20958;-63
2023/08/16 08:22:46;;;;;;;3.60;2.80;;;19.50;99.90;;;;;;5050584;28;20489;-63
2023/08/16 08:25:14;;;;;;;3.03;2.73;;;19.60;99.90;;;;;;5053434;28;20493;-62
2023/08/16 08:27:42;;;;;;;4.33;2.57;;;19.60;99.90;;;;;;5047717;28;21236;-62
2023/08/16 08:30:11;;;;;;;6.17;2.93;;;19.60;99.90;;;;;;5050243;28;20510;-66
2023/08/16 08:32:40;;;;;;;5.23;2.83;;;19.60;99.90;;;;;;5049313;28;20492;-63
2023/08/16 08:35:08;;;;;;;5.73;2.90;;;19.60;99.90;;;;;;5047987;28;20536;-63
2023/08/16 08:37:36;;;;;;;6.00;2.70;;;19.70;99.90;;;;;;5050971;28;20501;-63
2023/08/16 08:40:07;;;;;;;5.30;3.00;;;19.60;99.90;;;;;;5052967;28;20563;-63
2023/08/16 08:42:36;;;;;;;3.60;2.97;;;19.50;99.90;;;;;;5048865;28;20506;-64
2023/08/16 08:45:06;;;;;;;3.50;2.80;;;19.40;99.90;;;;;;5047545;28;20560;-62
2023/08/16 08:47:35;;;;;;;3.93;2.63;;;19.30;99.90;;;;;;5050317;28;20481;-63
2023/08/16 08:50:03;;;;;;;3.07;2.43;;;19.40;99.90;;;;;;5052374;28;20521;-63
2023/08/16 08:52:32;;;;;;;2.60;2.10;;;19.40;99.90;;;;;;5050119;28;21184;-63
2023/08/16 08:55:00;;;;;;;3.93;2.57;;;19.50;99.90;;;;;;5048832;28;20474;-63
2023/08/16 08:57:31;;;;;;;3.20;2.90;;;19.60;99.90;;;;;;5051203;28;20545;-63
2023/08/16 09:00:01;;;;;;;4.60;2.10;;;19.70;99.90;;;;;;5051860;28;20555;-62
2023/08/16 09:02:33;;;;;;;5.30;2.80;;;19.70;99.90;;;;;;5050848;28;20912;-63
2023/08/16 09:05:04;;;;;;;2.30;2.10;;;19.80;99.90;;;;;;5051289;28;20489;-62
2023/08/16 09:07:33;;;;;;;3.57;2.50;;;19.80;99.90;;;;;;5049781;28;20539;-63
2023/08/16 09:10:01;;;;;;;2.60;2.40;;;19.90;99.90;;;;;;5050272;28;20584;-63
2023/08/16 09:12:31;;;;;;;4.03;2.87;;;19.90;99.90;;;;;;5048205;28;20598;-63
2023/08/16 09:14:59;;;;;;;3.80;2.43;;;20.00;99.90;;;;;;5047157;28;20564;-63
2023/08/16 09:17:28;;;;;;;2.70;2.07;;;20.00;99.90;;;;;;5051588;28;20559;-63
2023/08/16 09:20:00;;;;;;;3.17;2.00;;;20.10;99.90;;;;;;5052036;28;20543;-63
2023/08/16 09:22:29;;;;;;;3.30;2.20;;;20.20;99.90;;;;;;5050789;28;20501;-63
2023/08/16 09:24:58;;;;;;;2.87;2.33;;;20.20;99.90;;;;;;5044778;28;20573;-63
2023/08/16 09:27:26;;;;;;;2.60;2.17;;;20.30;99.90;;;;;;5036058;28;20612;-63
2023/08/16 09:29:56;;;;;;;2.80;2.30;;;20.40;99.90;;;;;;5046688;28;20801;-64
2023/08/16 09:32:27;;;;;;;2.93;2.60;;;20.40;99.90;;;;;;5042803;28;20548;-64
2023/08/16 09:34:57;;;;;;;2.30;1.90;;;20.50;99.90;;;;;;5043867;28;20489;-63
2023/08/16 09:37:31;;;;;;;3.20;2.73;;;20.60;99.90;;;;;;5039478;28;20917;-61
2023/08/16 09:40:00;;;;;;;3.93;2.27;;;20.60;99.90;;;;;;5048958;28;20503;-64
2023/08/16 09:42:32;;;;;;;3.77;2.40;;;20.70;99.90;;;;;;5043915;28;21251;-64
2023/08/16 09:45:02;;;;;;;2.63;2.30;;;20.70;99.90;;;;;;5045465;28;20581;-63
2023/08/16 09:47:31;;;;;;;2.30;2.10;;;20.80;99.90;;;;;;5045779;28;20481;-63
2023/08/16 09:50:05;;;;;;;3.13;2.40;;;20.80;99.90;;;;;;5044422;28;20494;-63
2023/08/16 09:52:34;;;;;;;2.70;1.90;;;20.90;99.90;;;;;;5039478;28;20583;-63
2023/08/16 09:55:03;;;;;;;3.73;2.20;;;20.90;99.90;;;;;;5041536;28;20491;-63
2023/08/16 09:57:32;;;;;;;2.00;1.90;;;20.90;99.90;;;;;;5038432;28;20955;-62
2023/08/16 10:00:04;;;;;;;2.50;1.77;;;20.80;99.90;;;;;;5045315;28;20479;-63
2023/08/16 10:02:32;;;;;;;2.33;1.90;;;20.90;99.90;;;;;;5038238;28;20636;-63
2023/08/16 10:05:05;;;;;;;2.40;2.20;;;21.00;99.90;;;;;;5041597;28;20490;-62
2023/08/16 10:07:33;;;;;;;4.90;2.37;;;21.10;99.90;;;;;;5040286;28;21033;-62
2023/08/16 10:10:02;;;;;;;2.77;2.47;;;21.20;99.90;;;;;;5032129;28;20509;-63
2023/08/16 10:12:32;;;;;;;5.10;2.63;;;21.30;99.90;;;;;;5036987;28;20970;-63
2023/08/16 10:15:01;;;;;;;3.00;2.07;;;21.30;99.90;;;;;;5034371;28;20490;-63
2023/08/16 10:17:29;;;;;;;3.40;2.33;;;21.20;99.90;;;;;;5040142;28;20568;-62
2023/08/16 10:20:00;;;;;;;6.00;5.40;;;21.20;99.90;;;;;;5039274;28;20546;-62
2023/08/16 10:22:35;;;;;;;4.97;2.80;;;21.40;99.90;;;;;;5040434;28;21002;-62
2023/08/16 10:25:10;;;;;;;4.03;3.50;;;21.50;99.90;;;;;;5038614;28;20490;-63
2023/08/16 10:27:43;;;;;;;4.97;4.67;;;21.60;99.90;;;;;;5042792;28;20474;-63
2023/08/16 10:30:17;;;;;;;6.70;3.10;;;21.60;99.90;;;;;;5049449;28;20530;-62
2023/08/16 10:32:47;;;;;;;4.60;2.90;;;21.80;99.90;;;;;;5043845;28;20504;-63
2023/08/16 10:35:16;;;;;;;4.50;2.97;;;21.90;99.90;;;;;;5052677;28;20540;-62
2023/08/16 10:37:46;;;;;;;2.77;2.50;;;21.90;99.90;;;;;;5051377;28;20557;-63
2023/08/16 10:40:18;;;;;;;3.73;2.93;;;22.00;99.90;;;;;;5046069;28;20465;-63
2023/08/16 10:42:52;;;;;;;3.13;2.53;;;22.00;99.90;;;;;;5047570;28;20930;-66
2023/08/16 10:45:29;;;;;;;2.40;2.20;;;21.90;99.90;;;;;;5051357;28;20581;-68
2023/08/16 10:48:09;;;;;;;2.63;2.47;;;22.00;99.90;;;;;;5054484;28;20560;-69
2023/08/16 10:50:38;;;;;;;2.17;1.90;;;22.00;99.90;;;;;;5050208;28;20848;-69
2023/08/16 10:53:07;;;;;;;2.80;2.43;;;22.10;99.90;;;;;;5047401;28;20585;-67
2023/08/16 10:55:35;;;;;;;2.00;1.70;;;22.20;99.90;;;;;;5043851;28;20566;-69
2023/08/16 10:58:03;;;;;;;3.83;2.20;;;22.30;99.90;;;;;;5055644;28;20482;-69
2023/08/16 11:00:39;;;;;;;2.97;1.90;;;22.20;99.90;;;;;;5047424;28;20636;-63
2023/08/16 11:03:19;;;;;;;2.83;2.37;;;22.30;99.90;;;;;;5049712;28;21021;-62
2023/08/16 11:05:47;;;;;;;5.03;2.40;;;22.40;99.90;;;;;;5047884;28;20802;-62
2023/08/16 11:08:15;;;;;;;3.83;2.57;;;22.50;99.90;;;;;;5048922;28;20541;-62
2023/08/16 11:10:44;;;;;;;2.20;1.90;;;22.70;99.90;;;;;;5055264;28;20564;-63
2023/08/16 11:13:12;;;;;;;2.33;1.90;;;22.80;99.90;;;;;;5054402;28;20615;-62
2023/08/16 11:15:42;;;;;;;4.83;2.30;;;23.00;99.90;;;;;;5048021;28;20513;-63
2023/08/16 11:18:11;;;;;;;3.13;1.93;;;23.10;99.90;;;;;;5046874;28;20535;-61
2023/08/16 11:20:44;;;;;;;2.30;2.03;;;23.30;99.90;;;;;;5048754;28;20474;-62
2023/08/16 11:23:12;;;;;;;3.00;2.00;;;23.30;99.90;;;;;;5042788;28;21060;-65
2023/08/16 11:25:40;;;;;;;4.00;2.43;;;23.30;99.90;;;;;;5043952;28;21010;-65
2023/08/16 11:28:08;;;;;;;5.43;2.70;;;23.40;99.90;;;;;;5051209;28;20778;-65
2023/08/16 11:30:36;;;;;;;2.53;1.83;;;23.40;99.90;;;;;;5048879;28;20489;-65
2023/08/16 11:33:15;;;;;;;3.40;2.03;;;23.60;99.90;;;;;;5048665;28;20598;-64
2023/08/16 11:35:43;;;;;;;3.53;2.20;;;23.60;99.90;;;;;;5048208;28;20867;-64
2023/08/16 11:38:14;;;;;;;3.03;2.00;;;23.70;99.90;;;;;;5044816;28;20562;-68
2023/08/16 11:40:47;;;;;;;3.70;2.00;;;23.90;99.90;;;;;;5046663;28;20496;-67
2023/08/16 11:43:15;;;;;;;2.10;1.90;;;24.00;99.90;;;;;;5040921;28;20790;-61
2023/08/16 11:45:43;;;;;;;1.83;1.63;;;24.20;99.90;;;;;;5044762;28;20501;-61
2023/08/16 11:48:13;;;;;;;2.80;2.10;;;24.30;99.90;;;;;;5042123;28;20519;-60
2023/08/16 11:50:42;;;;;;;2.63;2.07;;;24.40;99.90;;;;;;5038345;28;21025;-60
2023/08/16 11:53:10;;;;;;;5.13;2.90;;;24.40;99.90;;;;;;5047000;28;20873;-61
2023/08/16 11:55:39;;;;;;;3.07;2.30;;;24.40;99.90;;;;;;5042067;28;20569;-61
2023/08/16 11:58:09;;;;;;;2.93;2.30;;;24.50;99.90;;;;;;5041256;28;20474;-60
2023/08/16 12:00:38;;;;;;;3.53;2.00;;;24.60;99.90;;;;;;5039300;28;20588;-61
2023/08/16 12:03:10;;;;;;;3.83;2.57;;;24.80;99.90;;;;;;5044234;28;20489;-60
2023/08/16 12:05:41;;;;;;;2.07;1.80;;;24.90;99.90;;;;;;5045044;28;21451;-59
2023/08/16 12:08:09;;;;;;;5.00;2.17;;;24.90;99.90;;;;;;5042622;28;20469;-60
2023/08/16 12:10:37;;;;;;;5.53;2.27;;;24.70;99.90;;;;;;5047198;28;20608;-60
2023/08/16 12:13:12;;;;;;;4.67;2.20;;;24.60;99.90;;;;;;5047377;28;20576;-60
2023/08/16 12:15:41;;;;;;;4.17;2.20;;;24.50;99.90;;;;;;5041611;28;20488;-60
2023/08/16 12:18:10;;;;;;;3.33;2.23;;;24.50;99.90;;;;;;5038481;28;20470;-62
2023/08/16 12:20:39;;;;;;;2.50;2.00;;;24.60;99.90;;;;;;5043903;28;20527;-62
2023/08/16 12:23:09;;;;;;;2.17;1.97;;;24.70;99.90;;;;;;5043382;28;20526;-61
2023/08/16 12:25:37;;;;;;;5.93;2.30;;;24.70;99.90;;;;;;5042700;28;20490;-67
2023/08/16 12:28:05;;;;;;;2.40;1.90;;;24.90;99.90;;;;;;5045597;28;20477;-61
2023/08/16 12:30:34;;;;;;;2.20;2.00;;;25.10;99.90;;;;;;5030874;28;20584;-63
2023/08/16 12:33:04;;;;;;;4.00;2.10;;;25.20;99.90;;;;;;5040465;28;20966;-60
2023/08/16 12:35:33;;;;;;;4.63;2.20;;;25.20;99.90;;;;;;5047532;28;20496;-60
2023/08/16 12:38:03;;;;;;;5.20;2.10;;;25.30;99.90;;;;;;5040543;28;20967;-60
2023/08/16 12:40:32;;;;;;;3.10;2.10;;;25.40;99.90;;;;;;5049573;28;20797;-59
2023/08/16 12:43:01;;;;;;;3.10;2.00;;;25.50;99.90;;;;;;5040290;28;20512;-60
2023/08/16 12:45:30;;;;;;;3.07;1.90;;;25.60;99.90;;;;;;5044439;28;20910;-60
2023/08/16 12:47:58;;;;;;;6.47;1.90;;;25.90;99.90;;;;;;5047127;28;20470;-62
2023/08/16 12:50:26;;;;;;;2.07;1.90;;;26.20;99.90;;;;;;5044229;28;20476;-60
2023/08/16 12:52:54;;;;;;;2.40;1.93;;;26.40;99.90;;;;;;5041556;28;20589;-60
2023/08/16 12:55:23;;;;;;;2.93;2.10;;;26.60;99.90;;;;;;5049638;28;21098;-61